sensor_id;sensor_type;location;lat;lon;timestamp;temperature;humidity
20773;DHT22;10546;50.674;4.616;2022-10-16T00:01:11;14.20;99.90
20773;DHT22;10546;50.674;4.616;2022-10-16T00:03:38;14.20;99.90
20773;DHT22;10546;50.674;4.616;2022-10-16T00:06:05;14.20;99.90
20773;DHT22;10546;50.674;4.616;2022-10-16T00:08:31;14.30;99.90
20773;DHT22;10546;50.674;4.616;2022-10-16T00:11:08;14.10;99.90
20773;DHT22;10546;50.674;4.616;2022-10-16T00:13:35;14.20;99.90
20773;DHT22;10546;50.674;4.616;2022-10-16T00:16:01;14.10;99.90
20773;DHT22;10546;50.674;4.616;2022-10-16T00:18:28;14.10;99.90
20773;DHT22;10546;50.674;4.616;2022-10-16T00:20:54;14.10;99.90
20773;DHT22;10546;50.674;4.616;2022-10-16T00:23:20;14.10;99.90
20773;DHT22;10546;50.674;4.616;2022-10-16T00:25:56;14.00;99.90
20773;DHT22;10546;50.674;4.616;2022-10-16T00:28:22;14.00;99.90
20773;DHT22;10546;50.674;4.616;2022-10-16T00:30:48;14.00;99.90
20773;DHT22;10546;50.674;4.616;2022-10-16T00:33:14;14.00;99.90
20773;DHT22;10546;50.674;4.616;2022-10-16T00:35:39;14.00;99.90
20773;DHT22;10546;50.674;4.616;2022-10-16T00:38:05;14.10;99.90
20773;DHT22;10546;50.674;4.616;2022-10-16T00:40:30;14.00;99.90
20773;DHT22;10546;50.674;4.616;2022-10-16T00:42:57;14.00;99.90
20773;DHT22;10546;50.674;4.616;2022-10-16T00:45:23;14.00;99.90
20773;DHT22;10546;50.674;4.616;2022-10-16T00:47:51;13.90;99.90
20773;DHT22;10546;50.674;4.616;2022-10-16T00:50:33;13.90;99.90
20773;DHT22;10546;50.674;4.616;2022-10-16T00:53:00;13.80;99.90
20773;DHT22;10546;50.674;4.616;2022-10-16T00:55:27;13.80;99.90
20773;DHT22;10546;50.674;4.616;2022-10-16T00:57:55;13.70;99.90
20773;DHT22;10546;50.674;4.616;2022-10-16T01:00:24;13.80;99.90
20773;DHT22;10546;50.674;4.616;2022-10-16T01:02:54;13.80;99.90
20773;DHT22;10546;50.674;4.616;2022-10-16T01:05:22;13.70;99.90
20773;DHT22;10546;50.674;4.616;2022-10-16T01:08:19;13.70;99.90
20773;DHT22;10546;50.674;4.616;2022-10-16T01:11:32;13.70;99.90
20773;DHT22;10546;50.674;4.616;2022-10-16T01:14:02;13.70;99.90
20773;DHT22;10546;50.674;4.616;2022-10-16T01:16:45;13.50;99.90
20773;DHT22;10546;50.674;4.616;2022-10-16T01:22:03;13.70;99.90
20773;DHT22;10546;50.674;4.616;2022-10-16T01:24:39;13.70;99.90
20773;DHT22;10546;50.674;4.616;2022-10-16T01:27:44;13.70;99.90
20773;DHT22;10546;50.674;4.616;2022-10-16T01:30:21;13.70;99.90
20773;DHT22;10546;50.674;4.616;2022-10-16T01:33:02;13.70;99.90
20773;DHT22;10546;50.674;4.616;2022-10-16T01:35:37;13.70;99.90
20773;DHT22;10546;50.674;4.616;2022-10-16T01:40:34;13.80;99.90
20773;DHT22;10546;50.674;4.616;2022-10-16T01:43:11;13.70;99.90
20773;DHT22;10546;50.674;4.616;2022-10-16T01:45:38;13.70;99.90
20773;DHT22;10546;50.674;4.616;2022-10-16T01:48:06;13.80;99.90
20773;DHT22;10546;50.674;4.616;2022-10-16T01:50:38;13.80;99.90
20773;DHT22;10546;50.674;4.616;2022-10-16T01:53:06;13.80;99.90
20773;DHT22;10546;50.674;4.616;2022-10-16T01:55:36;13.70;99.90
20773;DHT22;10546;50.674;4.616;2022-10-16T01:58:04;13.80;99.90
20773;DHT22;10546;50.674;4.616;2022-10-16T02:00:30;13.80;99.90
20773;DHT22;10546;50.674;4.616;2022-10-16T02:02:57;13.80;99.90
20773;DHT22;10546;50.674;4.616;2022-10-16T02:05:49;13.70;99.90
20773;DHT22;10546;50.674;4.616;2022-10-16T02:08:15;13.70;99.90
20773;DHT22;10546;50.674;4.616;2022-10-16T02:10:41;13.70;99.90
20773;DHT22;10546;50.674;4.616;2022-10-16T02:16:11;13.70;99.90
20773;DHT22;10546;50.674;4.616;2022-10-16T02:18:39;13.70;99.90
20773;DHT22;10546;50.674;4.616;2022-10-16T02:24:08;13.70;99.90
20773;DHT22;10546;50.674;4.616;2022-10-16T02:26:51;13.70;99.90
20773;DHT22;10546;50.674;4.616;2022-10-16T02:29:21;13.70;99.90
20773;DHT22;10546;50.674;4.616;2022-10-16T02:31:50;13.70;99.90
20773;DHT22;10546;50.674;4.616;2022-10-16T02:34:21;13.70;99.90
20773;DHT22;10546;50.674;4.616;2022-10-16T02:36:50;13.70;99.90
20773;DHT22;10546;50.674;4.616;2022-10-16T02:39:16;13.80;99.90
20773;DHT22;10546;50.674;4.616;2022-10-16T02:41:44;13.70;99.90
20773;DHT22;10546;50.674;4.616;2022-10-16T02:44:11;13.70;99.90
20773;DHT22;10546;50.674;4.616;2022-10-16T02:46:38;13.80;99.90
20773;DHT22;10546;50.674;4.616;2022-10-16T02:49:05;13.70;99.90
20773;DHT22;10546;50.674;4.616;2022-10-16T02:51:30;13.70;99.90
20773;DHT22;10546;50.674;4.616;2022-10-16T02:53:56;13.70;99.90
20773;DHT22;10546;50.674;4.616;2022-10-16T02:56:22;13.70;99.90
20773;DHT22;10546;50.674;4.616;2022-10-16T02:58:47;13.70;99.90
20773;DHT22;10546;50.674;4.616;2022-10-16T03:01:13;13.70;99.90
20773;DHT22;10546;50.674;4.616;2022-10-16T03:03:39;13.60;99.90
20773;DHT22;10546;50.674;4.616;2022-10-16T03:06:06;13.60;99.90
20773;DHT22;10546;50.674;4.616;2022-10-16T03:08:32;13.50;99.90
20773;DHT22;10546;50.674;4.616;2022-10-16T03:10:59;13.50;99.90
20773;DHT22;10546;50.674;4.616;2022-10-16T03:13:25;13.60;99.90
20773;DHT22;10546;50.674;4.616;2022-10-16T03:15:51;13.50;99.90
20773;DHT22;10546;50.674;4.616;2022-10-16T03:18:16;13.40;99.90
20773;DHT22;10546;50.674;4.616;2022-10-16T03:20:45;13.40;99.90
20773;DHT22;10546;50.674;4.616;2022-10-16T03:23:11;13.40;99.90
20773;DHT22;10546;50.674;4.616;2022-10-16T03:25:37;13.50;99.90
20773;DHT22;10546;50.674;4.616;2022-10-16T03:28:03;13.50;99.90
20773;DHT22;10546;50.674;4.616;2022-10-16T03:30:28;13.50;99.90
20773;DHT22;10546;50.674;4.616;2022-10-16T03:32:54;13.40;99.90
20773;DHT22;10546;50.674;4.616;2022-10-16T03:35:21;13.50;99.90
20773;DHT22;10546;50.674;4.616;2022-10-16T03:37:46;13.50;99.90
20773;DHT22;10546;50.674;4.616;2022-10-16T03:40:12;13.50;99.90
20773;DHT22;10546;50.674;4.616;2022-10-16T03:42:38;13.40;99.90
20773;DHT22;10546;50.674;4.616;2022-10-16T03:45:05;13.50;99.90
20773;DHT22;10546;50.674;4.616;2022-10-16T03:47:31;13.50;99.90
20773;DHT22;10546;50.674;4.616;2022-10-16T03:49:58;13.40;99.90
20773;DHT22;10546;50.674;4.616;2022-10-16T03:52:24;13.50;99.90
20773;DHT22;10546;50.674;4.616;2022-10-16T03:54:53;13.40;99.90
20773;DHT22;10546;50.674;4.616;2022-10-16T03:57:21;13.40;99.90
20773;DHT22;10546;50.674;4.616;2022-10-16T03:59:52;13.30;99.90
20773;DHT22;10546;50.674;4.616;2022-10-16T04:02:17;13.40;99.90
20773;DHT22;10546;50.674;4.616;2022-10-16T04:04:43;13.40;99.90
20773;DHT22;10546;50.674;4.616;2022-10-16T04:10:18;13.40;99.90
20773;DHT22;10546;50.674;4.616;2022-10-16T04:12:46;13.40;99.90
20773;DHT22;10546;50.674;4.616;2022-10-16T04:15:12;13.40;99.90
20773;DHT22;10546;50.674;4.616;2022-10-16T04:17:38;13.40;99.90
20773;DHT22;10546;50.674;4.616;2022-10-16T04:20:05;13.40;99.90
20773;DHT22;10546;50.674;4.616;2022-10-16T04:22:31;13.30;99.90
20773;DHT22;10546;50.674;4.616;2022-10-16T04:25:04;13.40;99.90
20773;DHT22;10546;50.674;4.616;2022-10-16T04:27:32;13.40;99.90
20773;DHT22;10546;50.674;4.616;2022-10-16T04:29:59;13.40;99.90
20773;DHT22;10546;50.674;4.616;2022-10-16T04:32:27;13.40;99.90
20773;DHT22;10546;50.674;4.616;2022-10-16T04:34:56;13.40;99.90
20773;DHT22;10546;50.674;4.616;2022-10-16T04:37:25;13.40;99.90
20773;DHT22;10546;50.674;4.616;2022-10-16T04:39:52;13.50;99.90
20773;DHT22;10546;50.674;4.616;2022-10-16T04:42:34;13.40;99.90
20773;DHT22;10546;50.674;4.616;2022-10-16T04:45:18;13.50;99.90
20773;DHT22;10546;50.674;4.616;2022-10-16T04:47:45;13.40;99.90
20773;DHT22;10546;50.674;4.616;2022-10-16T04:50:17;13.40;99.90
20773;DHT22;10546;50.674;4.616;2022-10-16T04:52:42;13.40;99.90
20773;DHT22;10546;50.674;4.616;2022-10-16T04:55:08;13.40;99.90
20773;DHT22;10546;50.674;4.616;2022-10-16T04:57:34;13.40;99.90
20773;DHT22;10546;50.674;4.616;2022-10-16T05:00:01;13.50;99.90
20773;DHT22;10546;50.674;4.616;2022-10-16T05:02:28;13.40;99.90
20773;DHT22;10546;50.674;4.616;2022-10-16T05:04:59;13.50;99.90
20773;DHT22;10546;50.674;4.616;2022-10-16T05:07:28;13.40;99.90
20773;DHT22;10546;50.674;4.616;2022-10-16T05:10:00;13.40;99.90
20773;DHT22;10546;50.674;4.616;2022-10-16T05:12:26;13.50;99.90
20773;DHT22;10546;50.674;4.616;2022-10-16T05:14:51;13.50;99.90
20773;DHT22;10546;50.674;4.616;2022-10-16T05:17:18;13.50;99.90
20773;DHT22;10546;50.674;4.616;2022-10-16T05:19:44;13.40;99.90
20773;DHT22;10546;50.674;4.616;2022-10-16T05:22:09;13.50;99.90
20773;DHT22;10546;50.674;4.616;2022-10-16T05:24:35;13.40;99.90
20773;DHT22;10546;50.674;4.616;2022-10-16T05:27:01;13.50;99.90
20773;DHT22;10546;50.674;4.616;2022-10-16T05:29:26;13.50;99.90
20773;DHT22;10546;50.674;4.616;2022-10-16T05:31:53;13.40;99.90
20773;DHT22;10546;50.674;4.616;2022-10-16T05:34:21;13.40;99.90
20773;DHT22;10546;50.674;4.616;2022-10-16T05:37:00;13.50;99.90
20773;DHT22;10546;50.674;4.616;2022-10-16T05:39:28;13.40;99.90
20773;DHT22;10546;50.674;4.616;2022-10-16T05:49:11;13.40;99.90
20773;DHT22;10546;50.674;4.616;2022-10-16T05:52:13;13.40;99.90
20773;DHT22;10546;50.674;4.616;2022-10-16T05:54:53;13.40;99.90
20773;DHT22;10546;50.674;4.616;2022-10-16T05:58:00;13.40;99.90
20773;DHT22;10546;50.674;4.616;2022-10-16T06:00:30;13.40;99.90
20773;DHT22;10546;50.674;4.616;2022-10-16T06:03:00;13.40;99.90
20773;DHT22;10546;50.674;4.616;2022-10-16T06:05:35;13.30;99.90
20773;DHT22;10546;50.674;4.616;2022-10-16T06:08:56;13.30;99.90
20773;DHT22;10546;50.674;4.616;2022-10-16T06:15:07;13.30;99.90
20773;DHT22;10546;50.674;4.616;2022-10-16T06:24:24;13.20;99.90
20773;DHT22;10546;50.674;4.616;2022-10-16T06:27:11;13.30;99.90
20773;DHT22;10546;50.674;4.616;2022-10-16T06:29:59;13.30;99.90
20773;DHT22;10546;50.674;4.616;2022-10-16T06:32:48;13.30;99.90
20773;DHT22;10546;50.674;4.616;2022-10-16T06:35:31;13.30;99.90
20773;DHT22;10546;50.674;4.616;2022-10-16T06:38:01;13.30;99.90
20773;DHT22;10546;50.674;4.616;2022-10-16T06:40:31;13.30;99.90
20773;DHT22;10546;50.674;4.616;2022-10-16T06:42:58;13.30;99.90
20773;DHT22;10546;50.674;4.616;2022-10-16T06:45:31;13.30;99.90
20773;DHT22;10546;50.674;4.616;2022-10-16T06:48:19;13.30;99.90
20773;DHT22;10546;50.674;4.616;2022-10-16T06:50:59;13.50;99.90
20773;DHT22;10546;50.674;4.616;2022-10-16T06:53:37;13.30;99.90
20773;DHT22;10546;50.674;4.616;2022-10-16T06:56:16;13.40;99.90
20773;DHT22;10546;50.674;4.616;2022-10-16T06:58:46;13.40;99.90
20773;DHT22;10546;50.674;4.616;2022-10-16T07:01:27;13.50;99.90
20773;DHT22;10546;50.674;4.616;2022-10-16T07:03:57;13.50;99.90
20773;DHT22;10546;50.674;4.616;2022-10-16T07:06:39;13.50;99.90
20773;DHT22;10546;50.674;4.616;2022-10-16T07:09:29;13.70;99.90
20773;DHT22;10546;50.674;4.616;2022-10-16T07:11:54;14.30;99.90
20773;DHT22;10546;50.674;4.616;2022-10-16T07:14:21;15.30;99.90
20773;DHT22;10546;50.674;4.616;2022-10-16T07:17:32;16.40;99.90
20773;DHT22;10546;50.674;4.616;2022-10-16T07:20:25;17.50;99.90
20773;DHT22;10546;50.674;4.616;2022-10-16T07:22:59;18.50;99.90
20773;DHT22;10546;50.674;4.616;2022-10-16T07:25:53;19.00;99.90
20773;DHT22;10546;50.674;4.616;2022-10-16T07:28:18;20.00;99.90
20773;DHT22;10546;50.674;4.616;2022-10-16T07:30:51;20.50;99.90
20773;DHT22;10546;50.674;4.616;2022-10-16T07:33:17;20.60;99.90
20773;DHT22;10546;50.674;4.616;2022-10-16T07:35:52;20.40;99.90
20773;DHT22;10546;50.674;4.616;2022-10-16T07:38:20;19.60;99.90
20773;DHT22;10546;50.674;4.616;2022-10-16T07:41:01;18.70;99.90
20773;DHT22;10546;50.674;4.616;2022-10-16T07:43:51;18.00;99.90
20773;DHT22;10546;50.674;4.616;2022-10-16T07:46:19;17.50;99.90
20773;DHT22;10546;50.674;4.616;2022-10-16T07:48:57;17.30;99.90
20773;DHT22;10546;50.674;4.616;2022-10-16T07:51:24;17.30;99.90
20773;DHT22;10546;50.674;4.616;2022-10-16T07:54:02;17.40;99.90
20773;DHT22;10546;50.674;4.616;2022-10-16T07:56:46;17.30;99.90
20773;DHT22;10546;50.674;4.616;2022-10-16T07:59:16;17.10;99.90
20773;DHT22;10546;50.674;4.616;2022-10-16T08:02:15;16.80;99.90
20773;DHT22;10546;50.674;4.616;2022-10-16T08:05:03;16.60;99.90
20773;DHT22;10546;50.674;4.616;2022-10-16T08:07:32;16.40;99.90
20773;DHT22;10546;50.674;4.616;2022-10-16T08:10:05;16.40;99.90
20773;DHT22;10546;50.674;4.616;2022-10-16T08:12:31;16.40;99.90
20773;DHT22;10546;50.674;4.616;2022-10-16T08:14:56;16.40;99.90
20773;DHT22;10546;50.674;4.616;2022-10-16T08:17:33;16.40;99.90
20773;DHT22;10546;50.674;4.616;2022-10-16T08:20:35;16.20;99.90
20773;DHT22;10546;50.674;4.616;2022-10-16T08:23:05;16.40;99.90
20773;DHT22;10546;50.674;4.616;2022-10-16T08:26:21;16.30;99.90
20773;DHT22;10546;50.674;4.616;2022-10-16T08:29:29;16.50;99.90
20773;DHT22;10546;50.674;4.616;2022-10-16T08:32:15;17.00;99.90
20773;DHT22;10546;50.674;4.616;2022-10-16T08:34:49;17.30;99.90
20773;DHT22;10546;50.674;4.616;2022-10-16T08:37:19;17.30;99.90
20773;DHT22;10546;50.674;4.616;2022-10-16T08:39:45;17.30;99.90
20773;DHT22;10546;50.674;4.616;2022-10-16T08:45:08;17.20;99.90
20773;DHT22;10546;50.674;4.616;2022-10-16T08:48:27;17.30;99.90
20773;DHT22;10546;50.674;4.616;2022-10-16T08:50:57;17.30;99.90
20773;DHT22;10546;50.674;4.616;2022-10-16T08:53:58;17.30;99.90
20773;DHT22;10546;50.674;4.616;2022-10-16T08:56:26;17.40;99.90
20773;DHT22;10546;50.674;4.616;2022-10-16T08:58:58;17.40;99.90
20773;DHT22;10546;50.674;4.616;2022-10-16T09:01:53;17.60;99.90
20773;DHT22;10546;50.674;4.616;2022-10-16T09:11:25;17.80;99.90
20773;DHT22;10546;50.674;4.616;2022-10-16T09:17:18;17.90;99.90
20773;DHT22;10546;50.674;4.616;2022-10-16T09:26:09;18.90;99.90
20773;DHT22;10546;50.674;4.616;2022-10-16T09:28:43;19.40;99.90
20773;DHT22;10546;50.674;4.616;2022-10-16T09:31:41;20.00;99.90
20773;DHT22;10546;50.674;4.616;2022-10-16T09:34:30;20.60;99.90
20773;DHT22;10546;50.674;4.616;2022-10-16T09:37:10;20.90;99.90
20773;DHT22;10546;50.674;4.616;2022-10-16T09:39:50;20.70;99.90
20773;DHT22;10546;50.674;4.616;2022-10-16T09:42:41;21.30;99.90
20773;DHT22;10546;50.674;4.616;2022-10-16T09:48:17;21.70;99.90
20773;DHT22;10546;50.674;4.616;2022-10-16T09:50:57;22.20;99.90
20773;DHT22;10546;50.674;4.616;2022-10-16T09:53:37;23.40;99.90
20773;DHT22;10546;50.674;4.616;2022-10-16T09:56:05;24.20;99.90
20773;DHT22;10546;50.674;4.616;2022-10-16T09:58:43;24.40;99.90
20773;DHT22;10546;50.674;4.616;2022-10-16T10:01:14;24.90;99.90
20773;DHT22;10546;50.674;4.616;2022-10-16T10:03:42;24.80;99.90
20773;DHT22;10546;50.674;4.616;2022-10-16T10:06:30;25.20;99.90
20773;DHT22;10546;50.674;4.616;2022-10-16T10:14:49;25.30;99.90
20773;DHT22;10546;50.674;4.616;2022-10-16T10:17:23;24.60;99.90
20773;DHT22;10546;50.674;4.616;2022-10-16T10:23:21;24.00;99.90
20773;DHT22;10546;50.674;4.616;2022-10-16T10:26:18;24.10;99.90
20773;DHT22;10546;50.674;4.616;2022-10-16T10:39:50;25.40;99.90
20773;DHT22;10546;50.674;4.616;2022-10-16T10:42:35;25.10;99.90
20773;DHT22;10546;50.674;4.616;2022-10-16T10:47:47;24.00;99.90
20773;DHT22;10546;50.674;4.616;2022-10-16T10:50:47;24.00;99.90
20773;DHT22;10546;50.674;4.616;2022-10-16T10:56:57;23.20;99.90
20773;DHT22;10546;50.674;4.616;2022-10-16T11:08:02;24.30;99.90
20773;DHT22;10546;50.674;4.616;2022-10-16T11:10:58;24.80;99.90
20773;DHT22;10546;50.674;4.616;2022-10-16T11:13:38;25.00;99.90
20773;DHT22;10546;50.674;4.616;2022-10-16T11:27:51;25.60;99.90
20773;DHT22;10546;50.674;4.616;2022-10-16T11:33:38;24.30;99.90
20773;DHT22;10546;50.674;4.616;2022-10-16T11:38:51;23.50;99.90
20773;DHT22;10546;50.674;4.616;2022-10-16T11:46:38;24.20;99.90
20773;DHT22;10546;50.674;4.616;2022-10-16T11:49:16;24.00;99.90
20773;DHT22;10546;50.674;4.616;2022-10-16T11:51:50;23.70;99.90
20773;DHT22;10546;50.674;4.616;2022-10-16T11:54:29;23.30;99.90
20773;DHT22;10546;50.674;4.616;2022-10-16T11:57:02;23.40;99.90
20773;DHT22;10546;50.674;4.616;2022-10-16T11:59:51;23.10;99.90
20773;DHT22;10546;50.674;4.616;2022-10-16T12:05:22;22.90;99.90
20773;DHT22;10546;50.674;4.616;2022-10-16T12:10:24;23.00;99.90
20773;DHT22;10546;50.674;4.616;2022-10-16T12:12:50;22.80;99.90
20773;DHT22;10546;50.674;4.616;2022-10-16T12:15:31;22.50;99.90
20773;DHT22;10546;50.674;4.616;2022-10-16T12:17:57;22.10;99.90
20773;DHT22;10546;50.674;4.616;2022-10-16T12:20:31;21.80;99.90
20773;DHT22;10546;50.674;4.616;2022-10-16T12:23:01;21.60;99.90
20773;DHT22;10546;50.674;4.616;2022-10-16T12:27:57;21.50;99.90
20773;DHT22;10546;50.674;4.616;2022-10-16T12:30:24;21.40;99.90
20773;DHT22;10546;50.674;4.616;2022-10-16T12:32:56;21.40;99.90
20773;DHT22;10546;50.674;4.616;2022-10-16T12:35:25;21.40;99.90
20773;DHT22;10546;50.674;4.616;2022-10-16T12:37:51;21.30;99.90
20773;DHT22;10546;50.674;4.616;2022-10-16T12:40:29;21.30;99.90
20773;DHT22;10546;50.674;4.616;2022-10-16T12:42:56;21.30;99.90
20773;DHT22;10546;50.674;4.616;2022-10-16T12:45:28;21.40;99.90
20773;DHT22;10546;50.674;4.616;2022-10-16T12:47:55;21.30;99.90
20773;DHT22;10546;50.674;4.616;2022-10-16T12:50:28;21.20;99.90
20773;DHT22;10546;50.674;4.616;2022-10-16T12:52:56;21.20;99.90
20773;DHT22;10546;50.674;4.616;2022-10-16T12:55:22;21.20;99.90
20773;DHT22;10546;50.674;4.616;2022-10-16T13:00:57;20.90;99.90
20773;DHT22;10546;50.674;4.616;2022-10-16T13:14:46;20.60;99.90
20773;DHT22;10546;50.674;4.616;2022-10-16T13:20:00;20.50;99.90
20773;DHT22;10546;50.674;4.616;2022-10-16T13:22:58;20.40;99.90
20773;DHT22;10546;50.674;4.616;2022-10-16T13:28:31;20.20;99.90
20773;DHT22;10546;50.674;4.616;2022-10-16T13:30:59;20.30;99.90
20773;DHT22;10546;50.674;4.616;2022-10-16T13:33:35;20.40;99.90
20773;DHT22;10546;50.674;4.616;2022-10-16T13:36:02;20.60;99.90
20773;DHT22;10546;50.674;4.616;2022-10-16T13:38:31;20.60;99.90
20773;DHT22;10546;50.674;4.616;2022-10-16T13:40:58;20.70;99.90
20773;DHT22;10546;50.674;4.616;2022-10-16T13:46:05;21.00;99.90
20773;DHT22;10546;50.674;4.616;2022-10-16T13:48:32;21.00;99.90
20773;DHT22;10546;50.674;4.616;2022-10-16T13:51:19;20.90;99.90
20773;DHT22;10546;50.674;4.616;2022-10-16T13:53:45;20.80;99.90
20773;DHT22;10546;50.674;4.616;2022-10-16T13:56:18;20.90;99.90
20773;DHT22;10546;50.674;4.616;2022-10-16T13:58:44;20.90;99.90
20773;DHT22;10546;50.674;4.616;2022-10-16T14:01:28;20.90;99.90
20773;DHT22;10546;50.674;4.616;2022-10-16T14:04:10;21.00;99.90
20773;DHT22;10546;50.674;4.616;2022-10-16T14:06:41;21.10;99.90
20773;DHT22;10546;50.674;4.616;2022-10-16T14:09:09;21.00;99.90
20773;DHT22;10546;50.674;4.616;2022-10-16T14:11:50;21.00;99.90
20773;DHT22;10546;50.674;4.616;2022-10-16T14:14:18;21.00;99.90
20773;DHT22;10546;50.674;4.616;2022-10-16T14:16:44;20.80;99.90
20773;DHT22;10546;50.674;4.616;2022-10-16T14:19:30;20.70;99.90
20773;DHT22;10546;50.674;4.616;2022-10-16T14:21:56;20.80;99.90
20773;DHT22;10546;50.674;4.616;2022-10-16T14:24:40;20.70;99.90
20773;DHT22;10546;50.674;4.616;2022-10-16T14:27:35;20.60;99.90
20773;DHT22;10546;50.674;4.616;2022-10-16T14:30:21;20.60;99.90
20773;DHT22;10546;50.674;4.616;2022-10-16T14:32:56;20.60;99.90
20773;DHT22;10546;50.674;4.616;2022-10-16T14:37:52;20.70;99.90
20773;DHT22;10546;50.674;4.616;2022-10-16T14:40:18;20.60;99.90
20773;DHT22;10546;50.674;4.616;2022-10-16T14:42:44;20.70;99.90
20773;DHT22;10546;50.674;4.616;2022-10-16T14:45:10;20.70;99.90
20773;DHT22;10546;50.674;4.616;2022-10-16T14:47:55;20.70;99.90
20773;DHT22;10546;50.674;4.616;2022-10-16T14:50:22;20.70;99.90
20773;DHT22;10546;50.674;4.616;2022-10-16T14:52:48;20.60;99.90
20773;DHT22;10546;50.674;4.616;2022-10-16T14:55:14;20.50;99.90
20773;DHT22;10546;50.674;4.616;2022-10-16T14:57:40;20.60;99.90
20773;DHT22;10546;50.674;4.616;2022-10-16T15:00:19;20.60;99.90
20773;DHT22;10546;50.674;4.616;2022-10-16T15:02:45;20.50;99.90
20773;DHT22;10546;50.674;4.616;2022-10-16T15:05:18;20.50;99.90
20773;DHT22;10546;50.674;4.616;2022-10-16T15:07:45;20.50;99.90
20773;DHT22;10546;50.674;4.616;2022-10-16T15:10:14;20.30;99.90
20773;DHT22;10546;50.674;4.616;2022-10-16T15:12:41;20.40;99.90
20773;DHT22;10546;50.674;4.616;2022-10-16T15:15:33;20.40;99.90
20773;DHT22;10546;50.674;4.616;2022-10-16T15:17:59;20.30;99.90
20773;DHT22;10546;50.674;4.616;2022-10-16T15:20:32;20.20;99.90
20773;DHT22;10546;50.674;4.616;2022-10-16T15:23:00;20.10;99.90
20773;DHT22;10546;50.674;4.616;2022-10-16T15:25:44;20.10;99.90
20773;DHT22;10546;50.674;4.616;2022-10-16T15:28:12;20.00;99.90
20773;DHT22;10546;50.674;4.616;2022-10-16T15:30:38;20.10;99.90
20773;DHT22;10546;50.674;4.616;2022-10-16T15:33:08;20.20;99.90
20773;DHT22;10546;50.674;4.616;2022-10-16T15:35:35;20.10;99.90
20773;DHT22;10546;50.674;4.616;2022-10-16T15:38:01;20.10;99.90
20773;DHT22;10546;50.674;4.616;2022-10-16T15:40:26;20.00;99.90
20773;DHT22;10546;50.674;4.616;2022-10-16T15:42:52;20.10;99.90
20773;DHT22;10546;50.674;4.616;2022-10-16T15:45:18;20.00;99.90
20773;DHT22;10546;50.674;4.616;2022-10-16T15:47:45;19.90;99.90
20773;DHT22;10546;50.674;4.616;2022-10-16T15:50:12;19.80;99.90
20773;DHT22;10546;50.674;4.616;2022-10-16T15:52:39;19.70;99.90
20773;DHT22;10546;50.674;4.616;2022-10-16T15:55:10;19.70;99.90
20773;DHT22;10546;50.674;4.616;2022-10-16T15:57:36;19.70;99.90
20773;DHT22;10546;50.674;4.616;2022-10-16T16:00:05;19.60;99.90
20773;DHT22;10546;50.674;4.616;2022-10-16T16:02:32;19.60;99.90
20773;DHT22;10546;50.674;4.616;2022-10-16T16:04:57;19.50;99.90
20773;DHT22;10546;50.674;4.616;2022-10-16T16:07:23;19.50;99.90
20773;DHT22;10546;50.674;4.616;2022-10-16T16:09:48;19.50;99.90
20773;DHT22;10546;50.674;4.616;2022-10-16T16:12:14;19.30;99.90
20773;DHT22;10546;50.674;4.616;2022-10-16T16:14:39;19.30;99.90
20773;DHT22;10546;50.674;4.616;2022-10-16T16:17:05;19.20;99.90
20773;DHT22;10546;50.674;4.616;2022-10-16T16:19:31;19.10;99.90
20773;DHT22;10546;50.674;4.616;2022-10-16T16:21:57;19.10;99.90
20773;DHT22;10546;50.674;4.616;2022-10-16T16:24:22;19.10;99.90
20773;DHT22;10546;50.674;4.616;2022-10-16T16:26:48;19.10;99.90
20773;DHT22;10546;50.674;4.616;2022-10-16T16:29:15;19.00;99.90
20773;DHT22;10546;50.674;4.616;2022-10-16T16:31:41;19.00;99.90
20773;DHT22;10546;50.674;4.616;2022-10-16T16:34:08;19.10;99.90
20773;DHT22;10546;50.674;4.616;2022-10-16T16:36:34;19.00;99.90
20773;DHT22;10546;50.674;4.616;2022-10-16T16:39:01;19.00;99.90
20773;DHT22;10546;50.674;4.616;2022-10-16T16:41:29;18.80;99.90
20773;DHT22;10546;50.674;4.616;2022-10-16T16:43:55;18.70;99.90
20773;DHT22;10546;50.674;4.616;2022-10-16T16:46:26;18.70;99.90
20773;DHT22;10546;50.674;4.616;2022-10-16T16:48:52;18.60;99.90
20773;DHT22;10546;50.674;4.616;2022-10-16T16:51:21;18.60;99.90
20773;DHT22;10546;50.674;4.616;2022-10-16T16:53:49;18.30;99.90
20773;DHT22;10546;50.674;4.616;2022-10-16T16:56:15;18.20;99.90
20773;DHT22;10546;50.674;4.616;2022-10-16T16:58:41;18.30;99.90
20773;DHT22;10546;50.674;4.616;2022-10-16T17:01:09;18.30;99.90
20773;DHT22;10546;50.674;4.616;2022-10-16T17:03:35;18.50;99.90
20773;DHT22;10546;50.674;4.616;2022-10-16T17:06:06;18.30;99.90
20773;DHT22;10546;50.674;4.616;2022-10-16T17:08:33;18.40;99.90
20773;DHT22;10546;50.674;4.616;2022-10-16T17:10:59;18.40;99.90
20773;DHT22;10546;50.674;4.616;2022-10-16T17:13:27;18.40;99.90
20773;DHT22;10546;50.674;4.616;2022-10-16T17:15:52;18.40;99.90
20773;DHT22;10546;50.674;4.616;2022-10-16T17:18:19;18.40;99.90
20773;DHT22;10546;50.674;4.616;2022-10-16T17:20:46;18.30;99.90
20773;DHT22;10546;50.674;4.616;2022-10-16T17:23:13;18.30;99.90
20773;DHT22;10546;50.674;4.616;2022-10-16T17:25:39;18.20;99.90
20773;DHT22;10546;50.674;4.616;2022-10-16T17:28:06;18.10;99.90
20773;DHT22;10546;50.674;4.616;2022-10-16T17:30:33;18.10;99.90
20773;DHT22;10546;50.674;4.616;2022-10-16T17:33:00;18.30;99.90
20773;DHT22;10546;50.674;4.616;2022-10-16T17:35:26;18.30;99.90
20773;DHT22;10546;50.674;4.616;2022-10-16T17:37:53;18.10;99.90
20773;DHT22;10546;50.674;4.616;2022-10-16T17:40:19;18.00;99.90
20773;DHT22;10546;50.674;4.616;2022-10-16T17:42:45;17.90;99.90
20773;DHT22;10546;50.674;4.616;2022-10-16T17:45:10;17.90;99.90
20773;DHT22;10546;50.674;4.616;2022-10-16T17:47:36;17.90;99.90
20773;DHT22;10546;50.674;4.616;2022-10-16T17:50:03;17.80;99.90
20773;DHT22;10546;50.674;4.616;2022-10-16T17:52:29;17.80;99.90
20773;DHT22;10546;50.674;4.616;2022-10-16T17:54:55;17.80;99.90
20773;DHT22;10546;50.674;4.616;2022-10-16T17:57:22;17.80;99.90
20773;DHT22;10546;50.674;4.616;2022-10-16T17:59:48;17.70;99.90
20773;DHT22;10546;50.674;4.616;2022-10-16T18:02:13;17.70;99.90
20773;DHT22;10546;50.674;4.616;2022-10-16T18:04:39;17.70;99.90
20773;DHT22;10546;50.674;4.616;2022-10-16T18:07:05;17.70;99.90
20773;DHT22;10546;50.674;4.616;2022-10-16T18:09:31;17.80;99.90
20773;DHT22;10546;50.674;4.616;2022-10-16T18:11:57;17.70;99.90
20773;DHT22;10546;50.674;4.616;2022-10-16T18:14:30;17.80;99.90
20773;DHT22;10546;50.674;4.616;2022-10-16T18:16:56;17.70;99.90
20773;DHT22;10546;50.674;4.616;2022-10-16T18:19:23;17.70;99.90
20773;DHT22;10546;50.674;4.616;2022-10-16T18:21:50;17.60;99.90
20773;DHT22;10546;50.674;4.616;2022-10-16T18:24:16;17.60;99.90
20773;DHT22;10546;50.674;4.616;2022-10-16T18:26:42;17.60;99.90